Accueil
METAR-TAF:

METAR-TAF

Aéroports :

Boscombe Down, Angleterre

latitude: 51-10N, longitude: 001-45W, altitude: 124 m

Observation

Le bulletin a été fait il y a 25 minutes, à 18:50 UTC
Vent 11 kt de nord-ouest
Température -1°C
Humidité 86%
Pression 994 hPa
Visibilité 10 km ou plus

METAR: EGDM 111850Z AUTO 32011KT 9999 NCD M01/M03 Q0994

Heure: 19:15 (19:15 UTC)

Prévision

Le bulletin a été fait il y a 5 heures et 18 minutes, à 13:57 UTC
Prévision valable du 11 à 15 UTC au 11 à 19 UTC
Vent 15 kt de nord/nord-ouest
Visibilité 10 km ou plus
Quelques nuages à une hauteur de 1600 ft
Probabilité 30% :
Temporairement
du 11 à 15 UTC au 11 à 16 UTC
Vent 15 kt de nord/nord-ouest avec des rafales jusqu'à 25 kt

TAF: EGDM 111357Z 1115/1119 34015KT 9999 FEW016 PROB30 TEMPO 1115/1116 34015G25KT

Observations et prévisions météorologiques de plus de 4000 aéroports (messages METAR et TAF).

Les stations disponibles sont représentées par des disques jaunes et rouges sur la carte.

Passer la souris dessus pour voir le nom de la station.

Cliquer dessus pour voir les observations et prévisions météorologiques.

Pour changer de carte: cliquez sur les boutons verts avec une croix noire pour zoomer, sur le bouton vert avec un tiret pour effectuer un zoom arrière, ou sur les flèches vertes pour les cartes adjacentes.


METAR-TAF: